»·PEaware :: N74KW KBLI-C72

N74KW :: KBLI-C72

FLIGHT INFORMATION

Flight Status: Arrived
Operator: Privately registered:
United States
More flights under this callsign
Pilot: Charles C. (26995)
Aircraft: MCDONNELL-DOUGLAS SKYTRAIN C-47
(DC3)
More flights by this aircraft type
Origin: KBLI Bellingham Intl
United States
Destination: C72 Cross Winds
United States
More flights between these airports :: More routes between these airports
Route: +HUH BVS 3WB SNNDY METOO
File this flight plan on PilotEdge
Remarks:
Altitude:
(Current/Filed)
7,500ft
Speed:
(Current/Filed)
150kts
Departed: 31-Aug-20 10:46 AM
Arrived: 31-Aug-20 12:15 PM
Distance/Time
Traveled:
205nm/1:29
Distance/Time
To Go:
Arrived

Flight Plot

Page will automatically refresh every two minutes.

Flight plan parsing failed; only flown route is shown


Map Options




Map Legend


Flown Route
Filed Route
Departure Airport
Arrival Airport
Navaid (VOR, NDB)
Fix

Horizontal Profiles

Position Reports

Time Latitude Longitude Heading Altitude Ground
Speed
31-Aug-20 10:27 48.793881 -122.532120 142 162ft 0kts
31-Aug-20 10:28 48.793881 -122.532120 142 162ft 0kts
31-Aug-20 10:29 48.793881 -122.532120 142 162ft 0kts
31-Aug-20 10:30 48.793881 -122.532120 142 162ft 0kts
31-Aug-20 10:31 48.793881 -122.532120 142 162ft 0kts
31-Aug-20 10:32 48.793863 -122.533181 336 161ft 6kts
31-Aug-20 10:33 48.794693 -122.533908 325 162ft 1kts
31-Aug-20 10:34 48.794830 -122.534051 324 162ft 0kts
31-Aug-20 10:35 48.795020 -122.534260 322 162ft 1kts
31-Aug-20 10:36 48.795509 -122.534861 318 162ft 3kts
31-Aug-20 10:37 48.795778 -122.535234 315 162ft 0kts
31-Aug-20 10:38 48.795778 -122.535234 315 162ft 0kts
31-Aug-20 10:39 48.795778 -122.535234 315 162ft 0kts
31-Aug-20 10:40 48.795778 -122.535234 315 162ft 0kts
31-Aug-20 10:41 48.795778 -122.535234 315 162ft 0kts
31-Aug-20 10:42 48.799083 -122.535830 1 165ft 19kts
31-Aug-20 10:43 48.801708 -122.536323 271 167ft 0kts
31-Aug-20 10:44 48.800392 -122.537603 173 167ft 20kts
31-Aug-20 10:45 48.774341 -122.536308 174 569ft 115kts
31-Aug-20 10:46 48.768224 -122.565653 339 1392ft 111kts
31-Aug-20 10:47 48.799724 -122.568287 352 2086ft 110kts
31-Aug-20 10:48 48.831091 -122.571140 353 2788ft 115kts
31-Aug-20 10:49 48.862623 -122.576754 350 3610ft 114kts
31-Aug-20 10:50 48.895657 -122.573379 1 4315ft 120kts
31-Aug-20 10:51 48.926789 -122.585206 338 5049ft 115kts
31-Aug-20 10:52 48.957845 -122.581014 311 5804ft 99kts
31-Aug-20 10:53 48.980562 -122.593415 47 6413ft 123kts
31-Aug-20 10:54 48.964710 -122.558896 178 6961ft 114kts
31-Aug-20 10:55 48.933657 -122.556928 173 7573ft 119kts
31-Aug-20 10:56 48.898880 -122.554015 173 8191ft 135kts
31-Aug-20 10:57 48.861638 -122.540309 175 8809ft 137kts
31-Aug-20 10:58 48.823870 -122.529248 170 9344ft 140kts
31-Aug-20 10:59 48.783608 -122.508248 186 9529ft 169kts
31-Aug-20 11:00 48.733863 -122.500313 174 9522ft 184kts
31-Aug-20 11:01 48.683363 -122.485680 172 9525ft 184kts
31-Aug-20 11:02 48.644206 -122.445296 110 9535ft 187kts
31-Aug-20 11:03 48.623476 -122.372275 110 9537ft 187kts
31-Aug-20 11:04 48.607903 -122.296856 99 9534ft 186kts
31-Aug-20 11:05 48.596843 -122.220254 98 9534ft 185kts
31-Aug-20 11:06 48.585676 -122.142965 98 9535ft 188kts
31-Aug-20 11:07 48.574403 -122.065359 98 9535ft 188kts
31-Aug-20 11:08 48.563111 -121.987975 97 9535ft 188kts
31-Aug-20 11:09 48.551866 -121.911295 97 9535ft 186kts
31-Aug-20 11:10 48.540659 -121.835219 96 9535ft 184kts
31-Aug-20 11:11 48.529485 -121.760260 100 9532ft 184kts
31-Aug-20 11:12 48.510375 -121.688328 106 9535ft 184kts
31-Aug-20 11:13 48.491146 -121.617125 106 9535ft 183kts
31-Aug-20 11:14 48.471830 -121.545832 106 9536ft 183kts
31-Aug-20 11:15 48.452558 -121.474915 106 9536ft 183kts
31-Aug-20 11:16 48.433412 -121.404679 106 9534ft 183kts
31-Aug-20 11:17 48.413830 -121.333055 107 9532ft 184kts
31-Aug-20 11:18 48.394472 -121.262453 107 9522ft 184kts
31-Aug-20 11:19 48.380459 -121.190379 82 9530ft 176kts
31-Aug-20 11:20 48.380867 -121.115856 81 9519ft 178kts
31-Aug-20 11:21 48.380975 -121.041023 82 9510ft 180kts
31-Aug-20 11:22 48.380884 -120.964270 80 9501ft 182kts
31-Aug-20 11:23 48.381139 -120.888066 80 9481ft 184kts
31-Aug-20 11:24 48.381375 -120.810725 81 9458ft 186kts
31-Aug-20 11:25 48.381567 -120.732172 82 9435ft 189kts
31-Aug-20 11:26 48.381653 -120.656235 82 9423ft 190kts
31-Aug-20 11:27 48.381654 -120.577409 80 9411ft 184kts
31-Aug-20 11:28 48.381721 -120.501709 79 9447ft 176kts
31-Aug-20 11:29 48.381717 -120.429141 79 9533ft 174kts
31-Aug-20 11:30 48.381650 -120.356165 79 9534ft 174kts
31-Aug-20 11:31 48.381527 -120.283473 79 9535ft 174kts
31-Aug-20 11:32 48.381361 -120.211016 79 9536ft 172kts
31-Aug-20 11:33 48.381152 -120.138819 79 9536ft 171kts
31-Aug-20 11:34 48.373121 -120.066086 90 9536ft 177kts
31-Aug-20 11:35 48.363821 -119.993177 90 9536ft 177kts
31-Aug-20 11:36 48.354442 -119.920158 90 9536ft 177kts
31-Aug-20 11:37 48.345831 -119.847080 86 9536ft 175kts
31-Aug-20 11:38 48.337676 -119.774106 89 9537ft 177kts
31-Aug-20 11:39 48.328358 -119.701316 90 9537ft 177kts
31-Aug-20 11:40 48.318815 -119.628384 90 9537ft 178kts
31-Aug-20 11:41 48.309177 -119.555273 90 9537ft 178kts
31-Aug-20 11:42 48.299491 -119.482203 90 9537ft 178kts
31-Aug-20 11:43 48.289767 -119.409219 90 9537ft 178kts
31-Aug-20 11:44 48.280065 -119.336768 91 9537ft 178kts
31-Aug-20 11:45 48.270238 -119.263772 91 9537ft 178kts
31-Aug-20 11:46 48.260356 -119.190734 91 9537ft 178kts
31-Aug-20 11:47 48.250394 -119.117473 91 9537ft 178kts
31-Aug-20 11:48 48.240440 -119.044637 91 9537ft 178kts
31-Aug-20 11:49 48.230428 -118.971496 92 9537ft 178kts
31-Aug-20 11:50 48.220430 -118.899193 95 9536ft 177kts
31-Aug-20 11:51 48.208257 -118.827605 97 9537ft 176kts
31-Aug-20 11:53 48.196119 -118.756958 98 9536ft 175kts
31-Aug-20 11:54 48.183950 -118.686332 98 9536ft 174kts
31-Aug-20 11:55 48.171785 -118.615950 98 9536ft 174kts
31-Aug-20 11:56 48.159592 -118.545665 98 9536ft 174kts
31-Aug-20 11:57 48.147306 -118.475111 98 9507ft 176kts
31-Aug-20 11:58 48.134460 -118.401512 99 9054ft 193kts
31-Aug-20 11:59 48.120647 -118.322936 100 8453ft 200kts
31-Aug-20 12:00 48.106422 -118.242310 100 7881ft 200kts
31-Aug-20 12:01 48.092770 -118.161719 101 7323ft 198kts
31-Aug-20 12:02 48.078405 -118.080718 101 6496ft 203kts
31-Aug-20 12:03 48.064121 -118.000649 101 5732ft 198kts
31-Aug-20 12:04 48.050039 -117.922152 102 4709ft 191kts
31-Aug-20 12:05 48.036105 -117.845377 107 3978ft 179kts
31-Aug-20 12:06 48.016784 -117.776807 108 3481ft 178kts
31-Aug-20 12:07 48.006876 -117.714541 92 3932ft 147kts
31-Aug-20 12:08 48.001355 -117.653138 115 4009ft 145kts
31-Aug-20 12:09 47.977352 -117.604283 120 3926ft 129kts
31-Aug-20 12:09 47.950096 -117.585165 156 3697ft 137kts
31-Aug-20 12:10 47.923501 -117.558927 95 3096ft 97kts
31-Aug-20 12:12 47.937511 -117.533774 53 3148ft 82kts
31-Aug-20 12:12 47.951245 -117.510539 356 3274ft 92kts
31-Aug-20 12:13 47.974555 -117.523326 335 2241ft 75kts
31-Aug-20 12:14 47.982905 -117.532784 309 2211ft 18kts
31-Aug-20 12:15 47.983313 -117.532891 89 2211ft 0kts
31-Aug-20 12:16 47.983313 -117.532891 89 2211ft 0kts
31-Aug-20 12:17 47.983313 -117.532891 89 2211ft 0kts

Navigation Log

Ident Type
Flight plan parsing failed, navigation log unavailable